sensor_id;sensor_type;location;lat;lon;timestamp;pressure;altitude;pressure_sealevel;temperature;humidity
30819;BME280;17546;42.674;23.284;2023-01-09T00:01:29;95005.16;;;10.45;40.86
30819;BME280;17546;42.674;23.284;2023-01-09T00:03:55;95007.19;;;10.50;40.34
30819;BME280;17546;42.674;23.284;2023-01-09T00:06:20;95006.47;;;10.55;40.50
30819;BME280;17546;42.674;23.284;2023-01-09T00:08:46;95000.66;;;10.53;40.36
30819;BME280;17546;42.674;23.284;2023-01-09T00:11:11;95001.22;;;10.58;40.46
30819;BME280;17546;42.674;23.284;2023-01-09T00:13:37;95007.03;;;10.60;40.36
30819;BME280;17546;42.674;23.284;2023-01-09T00:16:06;94986.22;;;10.70;40.03
30819;BME280;17546;42.674;23.284;2023-01-09T00:18:33;94992.31;;;10.48;40.79
30819;BME280;17546;42.674;23.284;2023-01-09T00:21:00;94986.41;;;10.61;40.44
30819;BME280;17546;42.674;23.284;2023-01-09T00:23:26;94994.63;;;10.49;40.39
30819;BME280;17546;42.674;23.284;2023-01-09T00:26:16;94992.34;;;10.53;40.33
30819;BME280;17546;42.674;23.284;2023-01-09T00:28:43;94991.78;;;10.44;40.42
30819;BME280;17546;42.674;23.284;2023-01-09T00:31:09;94989.28;;;10.46;40.57
30819;BME280;17546;42.674;23.284;2023-01-09T00:33:51;94996.56;;;10.43;40.57
30819;BME280;17546;42.674;23.284;2023-01-09T00:36:19;94992.53;;;10.44;40.53
30819;BME280;17546;42.674;23.284;2023-01-09T00:38:44;94996.66;;;10.54;40.24
30819;BME280;17546;42.674;23.284;2023-01-09T00:41:14;94996.69;;;10.60;40.42
30819;BME280;17546;42.674;23.284;2023-01-09T00:43:44;95005.78;;;10.61;40.14
30819;BME280;17546;42.674;23.284;2023-01-09T00:46:12;94990.78;;;10.47;40.39
30819;BME280;17546;42.674;23.284;2023-01-09T00:48:39;94992.53;;;10.44;40.20
30819;BME280;17546;42.674;23.284;2023-01-09T00:51:05;94994.06;;;10.45;40.37
30819;BME280;17546;42.674;23.284;2023-01-09T00:53:35;94992.72;;;10.35;40.67
30819;BME280;17546;42.674;23.284;2023-01-09T00:56:05;94993.00;;;10.43;40.70
30819;BME280;17546;42.674;23.284;2023-01-09T00:58:33;94987.72;;;10.39;40.42
30819;BME280;17546;42.674;23.284;2023-01-09T01:01:00;94994.00;;;10.40;40.25
30819;BME280;17546;42.674;23.284;2023-01-09T01:03:26;94990.03;;;10.46;40.10
30819;BME280;17546;42.674;23.284;2023-01-09T01:05:52;94991.78;;;10.44;40.21
30819;BME280;17546;42.674;23.284;2023-01-09T01:08:36;94984.34;;;10.29;40.62
30819;BME280;17546;42.674;23.284;2023-01-09T01:11:05;94991.28;;;10.45;40.05
30819;BME280;17546;42.674;23.284;2023-01-09T01:13:33;94986.34;;;10.55;39.69
30819;BME280;17546;42.674;23.284;2023-01-09T01:40:11;94949.75;;;7.33;48.97
30819;BME280;17546;42.674;23.284;2023-01-09T01:42:44;94957.13;;;8.19;46.16
30819;BME280;17546;42.674;23.284;2023-01-09T01:45:14;94950.19;;;8.54;45.22
30819;BME280;17546;42.674;23.284;2023-01-09T01:47:45;94944.31;;;8.81;44.35
30819;BME280;17546;42.674;23.284;2023-01-09T01:50:23;94950.97;;;8.89;44.05
30819;BME280;17546;42.674;23.284;2023-01-09T01:55:26;94929.88;;;9.27;43.32
30819;BME280;17546;42.674;23.284;2023-01-09T01:57:54;94929.44;;;9.35;42.93
30819;BME280;17546;42.674;23.284;2023-01-09T02:00:24;94925.59;;;9.47;42.38
30819;BME280;17546;42.674;23.284;2023-01-09T02:02:52;94923.38;;;9.30;42.82
30819;BME280;17546;42.674;23.284;2023-01-09T02:05:18;94917.06;;;9.30;43.00
30819;BME280;17546;42.674;23.284;2023-01-09T02:07:43;94905.81;;;9.34;42.63
30819;BME280;17546;42.674;23.284;2023-01-09T02:10:09;94914.78;;;9.49;42.39
30819;BME280;17546;42.674;23.284;2023-01-09T02:12:34;94913.50;;;9.44;42.61
30819;BME280;17546;42.674;23.284;2023-01-09T02:15:09;94910.50;;;9.48;42.69
30819;BME280;17546;42.674;23.284;2023-01-09T02:17:59;94918.44;;;9.61;42.28
30819;BME280;17546;42.674;23.284;2023-01-09T02:20:42;94912.63;;;9.59;42.38
30819;BME280;17546;42.674;23.284;2023-01-09T02:25:55;94922.03;;;9.67;42.12
30819;BME280;17546;42.674;23.284;2023-01-09T02:34:10;94906.81;;;9.57;42.15
30819;BME280;17546;42.674;23.284;2023-01-09T02:39:55;94904.69;;;9.66;41.81
30819;BME280;17546;42.674;23.284;2023-01-09T02:42:28;94904.53;;;9.76;41.46
30819;BME280;17546;42.674;23.284;2023-01-09T02:44:54;94896.22;;;9.76;41.58
30819;BME280;17546;42.674;23.284;2023-01-09T02:49:53;94898.59;;;9.62;41.88
30819;BME280;17546;42.674;23.284;2023-01-09T02:58:09;94900.63;;;9.41;42.20
30819;BME280;17546;42.674;23.284;2023-01-09T03:00:56;94889.81;;;9.17;42.66
30819;BME280;17546;42.674;23.284;2023-01-09T03:03:56;94901.16;;;9.45;42.14
30819;BME280;17546;42.674;23.284;2023-01-09T03:09:12;94896.03;;;9.33;42.36
30819;BME280;17546;42.674;23.284;2023-01-09T03:11:54;94898.13;;;9.43;42.01
30819;BME280;17546;42.674;23.284;2023-01-09T03:14:22;94887.72;;;9.33;42.41
30819;BME280;17546;42.674;23.284;2023-01-09T03:16:54;94887.09;;;9.23;42.59
30819;BME280;17546;42.674;23.284;2023-01-09T03:19:23;94899.59;;;9.39;41.99
30819;BME280;17546;42.674;23.284;2023-01-09T03:21:51;94891.66;;;9.46;42.20
30819;BME280;17546;42.674;23.284;2023-01-09T05:17:54;94883.69;;;8.93;43.29
30819;BME280;17546;42.674;23.284;2023-01-09T05:20:20;94881.00;;;8.98;43.23
30819;BME280;17546;42.674;23.284;2023-01-09T05:22:45;94886.47;;;9.13;42.93
30819;BME280;17546;42.674;23.284;2023-01-09T05:25:10;94885.03;;;9.18;42.79
30819;BME280;17546;42.674;23.284;2023-01-09T05:27:36;94881.63;;;9.08;42.94
30819;BME280;17546;42.674;23.284;2023-01-09T05:30:01;94885.41;;;8.90;43.09
30819;BME280;17546;42.674;23.284;2023-01-09T05:32:27;94878.59;;;9.06;42.72
30819;BME280;17546;42.674;23.284;2023-01-09T05:34:52;94873.69;;;9.16;42.94
30819;BME280;17546;42.674;23.284;2023-01-09T05:37:18;94865.75;;;9.03;43.27
30819;BME280;17546;42.674;23.284;2023-01-09T05:39:43;94868.91;;;9.16;42.72
30819;BME280;17546;42.674;23.284;2023-01-09T05:42:09;94863.75;;;9.24;42.88
30819;BME280;17546;42.674;23.284;2023-01-09T05:44:35;94872.28;;;9.26;42.69
30819;BME280;17546;42.674;23.284;2023-01-09T05:47:00;94874.13;;;9.08;43.28
30819;BME280;17546;42.674;23.284;2023-01-09T05:49:25;94871.41;;;9.14;43.06
30819;BME280;17546;42.674;23.284;2023-01-09T05:51:51;94859.53;;;9.28;42.90
30819;BME280;17546;42.674;23.284;2023-01-09T05:54:16;94865.44;;;9.21;42.97
30819;BME280;17546;42.674;23.284;2023-01-09T05:56:42;94857.25;;;9.27;42.71
30819;BME280;17546;42.674;23.284;2023-01-09T05:59:07;94857.56;;;9.35;42.73
30819;BME280;17546;42.674;23.284;2023-01-09T06:01:32;94866.31;;;9.07;43.20
30819;BME280;17546;42.674;23.284;2023-01-09T06:03:58;94864.00;;;9.26;42.82
30819;BME280;17546;42.674;23.284;2023-01-09T06:06:23;94856.97;;;9.25;43.04
30819;BME280;17546;42.674;23.284;2023-01-09T06:08:50;94861.03;;;9.29;43.11
30819;BME280;17546;42.674;23.284;2023-01-09T06:11:15;94860.00;;;9.27;42.99
30819;BME280;17546;42.674;23.284;2023-01-09T06:13:41;94856.13;;;9.39;42.70
30819;BME280;17546;42.674;23.284;2023-01-09T06:16:06;94857.44;;;9.23;43.03
30819;BME280;17546;42.674;23.284;2023-01-09T06:18:32;94858.34;;;9.35;43.08
30819;BME280;17546;42.674;23.284;2023-01-09T06:20:57;94861.44;;;9.43;43.10
30819;BME280;17546;42.674;23.284;2023-01-09T06:23:23;94860.59;;;9.37;43.04
30819;BME280;17546;42.674;23.284;2023-01-09T06:25:48;94859.22;;;9.47;42.66
30819;BME280;17546;42.674;23.284;2023-01-09T06:28:13;94853.69;;;9.47;43.11
30819;BME280;17546;42.674;23.284;2023-01-09T06:30:39;94847.69;;;9.48;42.98
30819;BME280;17546;42.674;23.284;2023-01-09T06:33:04;94851.41;;;9.45;42.96
30819;BME280;17546;42.674;23.284;2023-01-09T06:35:30;94847.91;;;9.24;43.12
30819;BME280;17546;42.674;23.284;2023-01-09T06:37:55;94847.72;;;9.54;42.85
30819;BME280;17546;42.674;23.284;2023-01-09T06:40:21;94854.63;;;9.64;42.64
30819;BME280;17546;42.674;23.284;2023-01-09T06:42:47;94854.66;;;9.70;42.26
30819;BME280;17546;42.674;23.284;2023-01-09T06:45:12;94842.28;;;9.65;42.73
30819;BME280;17546;42.674;23.284;2023-01-09T06:47:38;94862.91;;;9.64;42.72
30819;BME280;17546;42.674;23.284;2023-01-09T06:50:04;94852.94;;;9.72;43.01
30819;BME280;17546;42.674;23.284;2023-01-09T06:52:30;94858.59;;;9.84;42.52
30819;BME280;17546;42.674;23.284;2023-01-09T06:54:55;94849.91;;;9.70;42.60
30819;BME280;17546;42.674;23.284;2023-01-09T06:57:21;94860.53;;;9.78;42.74
30819;BME280;17546;42.674;23.284;2023-01-09T06:59:46;94854.06;;;9.86;42.50
30819;BME280;17546;42.674;23.284;2023-01-09T07:02:17;94860.47;;;9.98;42.26
30819;BME280;17546;42.674;23.284;2023-01-09T07:04:43;94853.69;;;9.99;42.52
30819;BME280;17546;42.674;23.284;2023-01-09T07:07:09;94849.56;;;9.89;42.48
30819;BME280;17546;42.674;23.284;2023-01-09T07:09:34;94854.44;;;10.00;42.70
30819;BME280;17546;42.674;23.284;2023-01-09T07:12:00;94850.75;;;10.08;42.36
30819;BME280;17546;42.674;23.284;2023-01-09T07:14:25;94840.22;;;10.12;42.26
30819;BME280;17546;42.674;23.284;2023-01-09T07:16:51;94845.03;;;10.18;42.35
30819;BME280;17546;42.674;23.284;2023-01-09T07:19:16;94843.91;;;10.30;42.48
30819;BME280;17546;42.674;23.284;2023-01-09T07:21:41;94849.88;;;10.28;42.31
30819;BME280;17546;42.674;23.284;2023-01-09T07:24:07;94854.06;;;10.44;42.19
30819;BME280;17546;42.674;23.284;2023-01-09T07:26:32;94848.97;;;10.37;42.52
30819;BME280;17546;42.674;23.284;2023-01-09T07:28:57;94848.53;;;10.44;42.06
30819;BME280;17546;42.674;23.284;2023-01-09T07:31:23;94848.31;;;10.48;42.10
30819;BME280;17546;42.674;23.284;2023-01-09T07:33:48;94823.31;;;10.42;42.18
30819;BME280;17546;42.674;23.284;2023-01-09T07:36:14;94844.88;;;10.64;41.83
30819;BME280;17546;42.674;23.284;2023-01-09T07:38:39;94845.38;;;10.63;42.29
30819;BME280;17546;42.674;23.284;2023-01-09T07:41:05;94848.22;;;10.74;41.77
30819;BME280;17546;42.674;23.284;2023-01-09T07:43:30;94855.31;;;10.81;41.68
30819;BME280;17546;42.674;23.284;2023-01-09T07:45:58;94850.78;;;10.89;41.90
30819;BME280;17546;42.674;23.284;2023-01-09T07:48:24;94857.38;;;10.91;41.95
30819;BME280;17546;42.674;23.284;2023-01-09T07:50:49;94870.03;;;11.04;41.80
30819;BME280;17546;42.674;23.284;2023-01-09T07:53:14;94865.50;;;11.01;41.93
30819;BME280;17546;42.674;23.284;2023-01-09T07:55:41;94871.09;;;11.17;41.88
30819;BME280;17546;42.674;23.284;2023-01-09T07:58:08;94871.41;;;11.31;41.52
30819;BME280;17546;42.674;23.284;2023-01-09T08:00:33;94865.91;;;11.42;41.61
30819;BME280;17546;42.674;23.284;2023-01-09T08:02:58;94872.22;;;11.43;41.79
30819;BME280;17546;42.674;23.284;2023-01-09T08:05:24;94871.19;;;11.46;41.95
30819;BME280;17546;42.674;23.284;2023-01-09T08:07:49;94873.75;;;11.55;41.82
30819;BME280;17546;42.674;23.284;2023-01-09T08:10:15;94873.53;;;11.70;41.69
30819;BME280;17546;42.674;23.284;2023-01-09T08:12:45;94876.88;;;11.79;41.67
30819;BME280;17546;42.674;23.284;2023-01-09T08:15:10;94874.53;;;11.61;41.87
30819;BME280;17546;42.674;23.284;2023-01-09T08:17:36;94864.72;;;11.77;41.66
30819;BME280;17546;42.674;23.284;2023-01-09T08:20:02;94881.13;;;11.75;41.67
30819;BME280;17546;42.674;23.284;2023-01-09T08:22:27;94872.84;;;11.86;41.34
30819;BME280;17546;42.674;23.284;2023-01-09T08:24:53;94872.84;;;11.92;41.31
30819;BME280;17546;42.674;23.284;2023-01-09T08:27:18;94867.03;;;11.84;41.33
30819;BME280;17546;42.674;23.284;2023-01-09T08:29:44;94870.81;;;11.87;41.29
30819;BME280;17546;42.674;23.284;2023-01-09T08:32:09;94876.38;;;11.92;41.34
30819;BME280;17546;42.674;23.284;2023-01-09T08:34:35;94881.69;;;11.90;41.66
30819;BME280;17546;42.674;23.284;2023-01-09T08:37:00;94886.75;;;11.92;41.49
30819;BME280;17546;42.674;23.284;2023-01-09T08:39:26;94878.38;;;11.86;41.34
30819;BME280;17546;42.674;23.284;2023-01-09T08:41:51;94878.34;;;11.69;41.78
30819;BME280;17546;42.674;23.284;2023-01-09T08:44:35;94876.06;;;11.62;41.79
30819;BME280;17546;42.674;23.284;2023-01-09T08:47:21;94878.88;;;11.85;41.50
30819;BME280;17546;42.674;23.284;2023-01-09T08:49:47;94869.78;;;11.78;41.92
30819;BME280;17546;42.674;23.284;2023-01-09T08:52:12;94863.47;;;11.78;41.95
30819;BME280;17546;42.674;23.284;2023-01-09T08:54:38;94851.38;;;11.81;41.86
30819;BME280;17546;42.674;23.284;2023-01-09T08:57:05;94852.63;;;11.74;42.27
30819;BME280;17546;42.674;23.284;2023-01-09T08:59:30;94847.34;;;11.82;42.13
30819;BME280;17546;42.674;23.284;2023-01-09T09:01:55;94850.66;;;11.92;42.21
30819;BME280;17546;42.674;23.284;2023-01-09T09:04:22;94856.22;;;12.03;42.03
30819;BME280;17546;42.674;23.284;2023-01-09T09:06:48;94851.44;;;12.15;41.92
30819;BME280;17546;42.674;23.284;2023-01-09T09:09:13;94843.34;;;12.11;42.00
30819;BME280;17546;42.674;23.284;2023-01-09T09:11:39;94834.28;;;12.22;41.84
30819;BME280;17546;42.674;23.284;2023-01-09T09:14:04;94827.38;;;11.84;42.33
30819;BME280;17546;42.674;23.284;2023-01-09T09:16:50;94833.25;;;11.97;42.66
30819;BME280;17546;42.674;23.284;2023-01-09T09:19:16;94826.19;;;12.18;42.19
30819;BME280;17546;42.674;23.284;2023-01-09T09:21:41;94818.34;;;12.23;42.15
30819;BME280;17546;42.674;23.284;2023-01-09T09:24:07;94812.50;;;11.75;43.00
30819;BME280;17546;42.674;23.284;2023-01-09T09:26:32;94797.41;;;12.10;42.16
30819;BME280;17546;42.674;23.284;2023-01-09T09:28:57;94810.25;;;11.79;43.03
30819;BME280;17546;42.674;23.284;2023-01-09T09:31:23;94801.97;;;12.02;42.61
30819;BME280;17546;42.674;23.284;2023-01-09T09:33:48;94794.16;;;12.06;42.35
30819;BME280;17546;42.674;23.284;2023-01-09T09:36:14;94787.28;;;11.79;43.08
30819;BME280;17546;42.674;23.284;2023-01-09T09:38:39;94776.72;;;12.11;42.55
30819;BME280;17546;42.674;23.284;2023-01-09T09:53:24;94729.25;;;12.96;41.81
30819;BME280;17546;42.674;23.284;2023-01-09T09:55:51;94715.16;;;13.35;41.26
30819;BME280;17546;42.674;23.284;2023-01-09T09:58:21;94718.91;;;13.43;40.46
30819;BME280;17546;42.674;23.284;2023-01-09T10:00:52;94704.06;;;13.66;39.76
30819;BME280;17546;42.674;23.284;2023-01-09T10:06:03;94680.66;;;13.50;39.55
30819;BME280;17546;42.674;23.284;2023-01-09T10:08:46;94680.97;;;14.01;39.43
30819;BME280;17546;42.674;23.284;2023-01-09T10:11:48;94691.19;;;14.17;39.14
30819;BME280;17546;42.674;23.284;2023-01-09T10:14:16;94679.50;;;14.24;38.79
30819;BME280;17546;42.674;23.284;2023-01-09T10:28:14;94662.66;;;14.36;38.12
30819;BME280;17546;42.674;23.284;2023-01-09T10:31:16;94658.00;;;15.06;37.61
30819;BME280;17546;42.674;23.284;2023-01-09T10:33:53;94647.56;;;14.88;37.57
30819;BME280;17546;42.674;23.284;2023-01-09T10:38:58;94651.50;;;15.17;37.74
30819;BME280;17546;42.674;23.284;2023-01-09T10:41:56;94650.38;;;14.88;37.52
30819;BME280;17546;42.674;23.284;2023-01-09T10:44:24;94629.94;;;15.18;37.24
30819;BME280;17546;42.674;23.284;2023-01-09T10:46:53;94637.44;;;15.42;37.06
30819;BME280;17546;42.674;23.284;2023-01-09T10:49:21;94628.13;;;15.01;37.31
30819;BME280;17546;42.674;23.284;2023-01-09T10:52:16;94619.31;;;14.78;37.70
30819;BME280;17546;42.674;23.284;2023-01-09T10:55:10;94621.50;;;15.04;37.38
30819;BME280;17546;42.674;23.284;2023-01-09T10:57:43;94598.75;;;14.81;37.89
30819;BME280;17546;42.674;23.284;2023-01-09T11:00:21;94591.88;;;14.44;38.43
30819;BME280;17546;42.674;23.284;2023-01-09T11:02:47;94588.66;;;14.97;38.33
30819;BME280;17546;42.674;23.284;2023-01-09T11:05:34;94592.69;;;15.15;37.84
30819;BME280;17546;42.674;23.284;2023-01-09T11:10:55;94578.03;;;15.28;37.58
30819;BME280;17546;42.674;23.284;2023-01-09T11:13:24;94577.94;;;14.44;38.58
30819;BME280;17546;42.674;23.284;2023-01-09T11:18:40;94589.69;;;14.94;37.57
30819;BME280;17546;42.674;23.284;2023-01-09T11:21:13;94576.06;;;14.91;37.81
30819;BME280;17546;42.674;23.284;2023-01-09T11:23:42;94584.13;;;14.75;38.04
30819;BME280;17546;42.674;23.284;2023-01-09T11:26:21;94566.06;;;14.82;37.96
30819;BME280;17546;42.674;23.284;2023-01-09T11:29:05;94564.69;;;14.88;37.74
30819;BME280;17546;42.674;23.284;2023-01-09T11:31:31;94560.75;;;14.97;37.81
30819;BME280;17546;42.674;23.284;2023-01-09T11:33:57;94563.44;;;14.46;38.37
30819;BME280;17546;42.674;23.284;2023-01-09T11:36:23;94560.38;;;14.50;38.38
30819;BME280;17546;42.674;23.284;2023-01-09T11:38:50;94558.59;;;14.71;37.95
30819;BME280;17546;42.674;23.284;2023-01-09T11:41:20;94560.97;;;14.99;37.73
30819;BME280;17546;42.674;23.284;2023-01-09T11:43:51;94555.44;;;13.99;39.32
30819;BME280;17546;42.674;23.284;2023-01-09T11:46:31;94552.19;;;13.70;40.45
30819;BME280;17546;42.674;23.284;2023-01-09T11:48:59;94548.63;;;13.15;40.85
30819;BME280;17546;42.674;23.284;2023-01-09T11:51:27;94552.53;;;13.85;39.60
30819;BME280;17546;42.674;23.284;2023-01-09T11:54:28;94547.38;;;13.71;39.79
30819;BME280;17546;42.674;23.284;2023-01-09T11:56:55;94537.88;;;13.60;39.77
30819;BME280;17546;42.674;23.284;2023-01-09T11:59:24;94534.22;;;13.47;40.24
30819;BME280;17546;42.674;23.284;2023-01-09T12:04:58;94539.50;;;14.18;38.89
30819;BME280;17546;42.674;23.284;2023-01-09T12:08:33;94534.63;;;14.24;38.74
30819;BME280;17546;42.674;23.284;2023-01-09T12:16:39;94508.91;;;13.94;39.63
30819;BME280;17546;42.674;23.284;2023-01-09T12:28:10;94491.91;;;13.97;39.42
30819;BME280;17546;42.674;23.284;2023-01-09T12:33:40;94496.44;;;14.00;39.55
30819;BME280;17546;42.674;23.284;2023-01-09T12:35:43;94494.78;;;14.30;38.97
30819;BME280;17546;42.674;23.284;2023-01-09T12:41:18;94487.84;;;14.36;38.96
30819;BME280;17546;42.674;23.284;2023-01-09T12:46:30;94484.53;;;14.38;39.23
30819;BME280;17546;42.674;23.284;2023-01-09T12:49:17;94478.78;;;14.68;38.69
30819;BME280;17546;42.674;23.284;2023-01-09T12:54:36;94472.34;;;14.41;38.74
30819;BME280;17546;42.674;23.284;2023-01-09T12:57:29;94462.97;;;14.76;38.12
30819;BME280;17546;42.674;23.284;2023-01-09T13:00:25;94466.00;;;14.59;38.39
30819;BME280;17546;42.674;23.284;2023-01-09T13:03:04;94456.19;;;14.72;38.28
30819;BME280;17546;42.674;23.284;2023-01-09T13:05:45;94459.56;;;14.13;39.20
30819;BME280;17546;42.674;23.284;2023-01-09T13:08:24;94455.00;;;14.48;38.77
30819;BME280;17546;42.674;23.284;2023-01-09T13:11:15;94455.75;;;14.67;38.86
30819;BME280;17546;42.674;23.284;2023-01-09T13:13:56;94451.56;;;14.42;38.78
30819;BME280;17546;42.674;23.284;2023-01-09T13:16:34;94438.09;;;14.08;39.59
30819;BME280;17546;42.674;23.284;2023-01-09T13:21:51;94446.19;;;13.68;40.16
30819;BME280;17546;42.674;23.284;2023-01-09T13:26:46;94427.63;;;13.76;40.23
30819;BME280;17546;42.674;23.284;2023-01-09T13:34:16;94441.91;;;13.67;40.11
30819;BME280;17546;42.674;23.284;2023-01-09T13:36:49;94440.88;;;14.08;39.42
30819;BME280;17546;42.674;23.284;2023-01-09T13:39:30;94439.22;;;14.18;39.25
30819;BME280;17546;42.674;23.284;2023-01-09T13:42:06;94444.03;;;13.99;39.61
30819;BME280;17546;42.674;23.284;2023-01-09T13:45:18;94443.06;;;13.96;39.48
30819;BME280;17546;42.674;23.284;2023-01-09T13:47:44;94441.19;;;13.85;39.77
30819;BME280;17546;42.674;23.284;2023-01-09T13:52:40;94439.69;;;13.60;40.12
30819;BME280;17546;42.674;23.284;2023-01-09T14:03:41;94437.28;;;13.26;40.86
30819;BME280;17546;42.674;23.284;2023-01-09T14:06:11;94431.38;;;13.11;41.31
30819;BME280;17546;42.674;23.284;2023-01-09T14:08:38;94431.38;;;13.11;41.28
30819;BME280;17546;42.674;23.284;2023-01-09T14:11:06;94436.91;;;13.41;40.87
30819;BME280;17546;42.674;23.284;2023-01-09T14:16:22;94420.13;;;13.22;41.25
30819;BME280;17546;42.674;23.284;2023-01-09T14:19:03;94428.66;;;13.54;40.69
30819;BME280;17546;42.674;23.284;2023-01-09T14:24:39;94420.09;;;13.71;40.43
30819;BME280;17546;42.674;23.284;2023-01-09T14:32:56;94405.81;;;13.80;40.17
30819;BME280;17546;42.674;23.284;2023-01-09T14:35:37;94415.97;;;13.97;40.04
30819;BME280;17546;42.674;23.284;2023-01-09T14:38:37;94414.31;;;14.07;39.98
30819;BME280;17546;42.674;23.284;2023-01-09T14:46:23;94416.13;;;13.85;39.87
30819;BME280;17546;42.674;23.284;2023-01-09T14:51:48;94387.09;;;13.13;41.32
30819;BME280;17546;42.674;23.284;2023-01-09T14:56:51;94408.19;;;13.52;40.47
30819;BME280;17546;42.674;23.284;2023-01-09T14:59:18;94389.75;;;13.49;40.59
30819;BME280;17546;42.674;23.284;2023-01-09T15:01:46;94376.00;;;12.88;41.58
30819;BME280;17546;42.674;23.284;2023-01-09T15:04:34;94391.50;;;13.52;40.58
30819;BME280;17546;42.674;23.284;2023-01-09T15:07:04;94396.50;;;13.34;40.67
30819;BME280;17546;42.674;23.284;2023-01-09T15:09:40;94388.06;;;12.66;41.83
30819;BME280;17546;42.674;23.284;2023-01-09T15:12:08;94390.53;;;13.00;41.40
30819;BME280;17546;42.674;23.284;2023-01-09T15:14:40;94393.19;;;13.11;40.98
30819;BME280;17546;42.674;23.284;2023-01-09T15:17:21;94372.53;;;12.52;42.16
30819;BME280;17546;42.674;23.284;2023-01-09T15:19:48;94355.47;;;12.06;43.17
30819;BME280;17546;42.674;23.284;2023-01-09T15:22:28;94377.22;;;12.63;42.13
30819;BME280;17546;42.674;23.284;2023-01-09T15:24:54;94372.25;;;12.55;42.14
30819;BME280;17546;42.674;23.284;2023-01-09T15:27:19;94373.56;;;12.79;41.72
30819;BME280;17546;42.674;23.284;2023-01-09T15:29:47;94386.63;;;12.84;41.73
30819;BME280;17546;42.674;23.284;2023-01-09T15:32:26;94361.97;;;12.14;42.79
30819;BME280;17546;42.674;23.284;2023-01-09T15:34:53;94356.31;;;12.56;42.17
30819;BME280;17546;42.674;23.284;2023-01-09T15:37:32;94368.81;;;12.08;42.77
30819;BME280;17546;42.674;23.284;2023-01-09T15:40:00;94371.19;;;11.92;43.58
30819;BME280;17546;42.674;23.284;2023-01-09T15:42:29;94389.34;;;12.35;42.70
30819;BME280;17546;42.674;23.284;2023-01-09T15:45:25;94349.53;;;11.91;43.64
30819;BME280;17546;42.674;23.284;2023-01-09T15:47:52;94363.66;;;11.93;43.70
30819;BME280;17546;42.674;23.284;2023-01-09T15:50:24;94359.53;;;10.94;45.93
30819;BME280;17546;42.674;23.284;2023-01-09T15:52:50;94356.03;;;11.46;44.99
30819;BME280;17546;42.674;23.284;2023-01-09T15:55:30;94372.59;;;11.63;44.31
30819;BME280;17546;42.674;23.284;2023-01-09T15:58:01;94352.84;;;11.78;44.27
30819;BME280;17546;42.674;23.284;2023-01-09T16:00:39;94370.97;;;11.85;43.98
30819;BME280;17546;42.674;23.284;2023-01-09T16:03:16;94352.00;;;11.47;44.80
30819;BME280;17546;42.674;23.284;2023-01-09T16:05:45;94351.53;;;11.43;45.19
30819;BME280;17546;42.674;23.284;2023-01-09T16:08:27;94359.03;;;12.01;43.83
30819;BME280;17546;42.674;23.284;2023-01-09T16:11:04;94361.97;;;12.14;43.46
30819;BME280;17546;42.674;23.284;2023-01-09T16:13:32;94349.28;;;11.89;43.92
30819;BME280;17546;42.674;23.284;2023-01-09T16:16:00;94353.91;;;11.22;45.16
30819;BME280;17546;42.674;23.284;2023-01-09T16:18:29;94359.09;;;11.90;44.01
30819;BME280;17546;42.674;23.284;2023-01-09T16:23:35;94353.13;;;12.16;43.29
30819;BME280;17546;42.674;23.284;2023-01-09T16:28:31;94335.97;;;11.76;44.08
30819;BME280;17546;42.674;23.284;2023-01-09T16:31:06;94336.66;;;12.24;43.18
30819;BME280;17546;42.674;23.284;2023-01-09T16:33:47;94331.03;;;12.35;42.94
30819;BME280;17546;42.674;23.284;2023-01-09T16:36:16;94320.28;;;12.20;42.97
30819;BME280;17546;42.674;23.284;2023-01-09T16:38:43;94328.75;;;12.33;42.75
30819;BME280;17546;42.674;23.284;2023-01-09T16:41:19;94314.38;;;12.29;42.94
30819;BME280;17546;42.674;23.284;2023-01-09T16:44:05;94310.28;;;12.06;43.58
30819;BME280;17546;42.674;23.284;2023-01-09T16:46:43;94325.09;;;12.19;43.53
30819;BME280;17546;42.674;23.284;2023-01-09T16:49:22;94302.22;;;11.66;44.53
30819;BME280;17546;42.674;23.284;2023-01-09T16:51:49;94326.94;;;12.06;43.58
30819;BME280;17546;42.674;23.284;2023-01-09T16:54:16;94301.28;;;11.99;43.72
30819;BME280;17546;42.674;23.284;2023-01-09T16:56:46;94299.47;;;12.02;43.73
30819;BME280;17546;42.674;23.284;2023-01-09T16:59:20;94310.41;;;12.25;43.25
30819;BME280;17546;42.674;23.284;2023-01-09T17:01:50;94312.47;;;12.18;43.15
30819;BME280;17546;42.674;23.284;2023-01-09T17:04:17;94318.63;;;12.36;43.04
30819;BME280;17546;42.674;23.284;2023-01-09T17:06:45;94320.47;;;11.97;43.81
30819;BME280;17546;42.674;23.284;2023-01-09T17:09:14;94323.63;;;11.71;44.17
30819;BME280;17546;42.674;23.284;2023-01-09T17:11:40;94306.75;;;12.05;43.55
30819;BME280;17546;42.674;23.284;2023-01-09T17:14:07;94294.59;;;11.78;44.10
30819;BME280;17546;42.674;23.284;2023-01-09T17:16:34;94307.94;;;12.15;43.36
30819;BME280;17546;42.674;23.284;2023-01-09T17:19:01;94314.63;;;12.01;43.81
30819;BME280;17546;42.674;23.284;2023-01-09T17:21:27;94326.47;;;12.32;43.30
30819;BME280;17546;42.674;23.284;2023-01-09T17:23:53;94305.31;;;12.29;43.21
30819;BME280;17546;42.674;23.284;2023-01-09T17:26:39;94316.56;;;11.70;44.30
30819;BME280;17546;42.674;23.284;2023-01-09T17:29:25;94292.00;;;11.86;43.96
30819;BME280;17546;42.674;23.284;2023-01-09T17:31:50;94296.38;;;12.11;43.70
30819;BME280;17546;42.674;23.284;2023-01-09T17:34:16;94300.31;;;11.91;44.00
30819;BME280;17546;42.674;23.284;2023-01-09T17:36:42;94304.34;;;11.90;43.99
30819;BME280;17546;42.674;23.284;2023-01-09T17:39:12;94300.31;;;11.86;44.31
30819;BME280;17546;42.674;23.284;2023-01-09T17:41:37;94291.34;;;12.10;43.95
30819;BME280;17546;42.674;23.284;2023-01-09T17:44:03;94271.72;;;12.02;44.01
30819;BME280;17546;42.674;23.284;2023-01-09T17:46:31;94288.75;;;12.17;43.53